Time;durP1;ratioP1;P1;durP2;ratioP2;P2;SDS_P1;SDS_P2;PMS_P1;PMS_P2;Temp;Humidity;BMP_temperature;BMP_pressure;BME280_temperature;BME280_humidity;BME280_pressure;Samples;Min_cycle;Max_cycle;Signal;HPM_P1;HPM_P2
2022/05/31 00:00:39;;;;;;;0.45;0.45;;;;;;;14.14;48.73;100802.78;5183927;28;20612;-81
2022/05/31 00:03:09;;;;;;;0.70;0.70;;;;;;;14.12;49.48;100796.69;5178424;28;20125;-82
2022/05/31 00:05:40;;;;;;;0.50;0.50;;;;;;;14.15;48.49;100801.84;5165436;28;20270;-81
2022/05/31 00:08:10;;;;;;;0.65;0.65;;;;;;;14.13;48.81;100787.84;5195844;28;20025;-81
2022/05/31 00:10:41;;;;;;;0.63;0.63;;;;;;;14.16;48.50;100794.78;5201105;28;20068;-81
2022/05/31 00:13:11;;;;;;;0.80;0.80;;;;;;;14.10;49.02;100795.03;5169845;28;20358;-81
2022/05/31 00:15:42;;;;;;;1.23;0.88;;;;;;;14.11;48.68;100797.63;5158570;28;20037;-81
2022/05/31 00:18:13;;;;;;;1.85;1.27;;;;;;;14.11;48.49;100784.41;5184261;28;20033;-81
2022/05/31 00:20:44;;;;;;;0.63;0.63;;;;;;;14.14;48.52;100786.06;5182873;28;20072;-81
2022/05/31 00:23:14;;;;;;;0.65;0.65;;;;;;;14.15;48.65;100790.44;5199038;28;20322;-82
2022/05/31 00:25:47;;;;;;;0.52;0.52;;;;;;;14.14;48.65;100792.22;5196479;28;20235;-81
2022/05/31 00:28:18;;;;;;;8.52;1.23;;;;;;;14.15;48.79;100793.94;5185226;28;20029;-81
2022/05/31 00:30:48;;;;;;;0.88;0.88;;;;;;;14.12;48.80;100794.06;5198414;28;20090;-81
2022/05/31 00:33:19;;;;;;;5.60;1.73;;;;;;;14.14;48.84;100791.34;5164802;28;20045;-81
2022/05/31 00:35:51;;;;;;;0.60;0.60;;;;;;;14.14;49.07;100786.06;5179756;28;20060;-81
2022/05/31 00:38:25;;;;;;;0.52;0.50;;;;;;;14.10;49.01;100787.13;5188568;28;20030;-81
2022/05/31 00:41:23;;;;;;;0.55;0.55;;;;;;;14.11;49.15;100781.78;5183521;28;20045;-81
2022/05/31 00:43:59;;;;;;;0.73;0.73;;;;;;;14.08;49.18;100781.03;5164342;28;20055;-81
2022/05/31 00:46:42;;;;;;;0.57;0.57;;;;;;;14.10;49.09;100785.34;5194490;28;20131;-82
2022/05/31 00:49:22;;;;;;;0.57;0.57;;;;;;;14.08;48.90;100779.28;5177844;28;20036;-81
2022/05/31 00:51:56;;;;;;;0.57;0.57;;;;;;;14.07;49.20;100780.19;5163541;28;20044;-81
2022/05/31 00:54:29;;;;;;;;;;;;;;;14.06;49.14;100782.88;5180763;28;20128;-82
2022/05/31 00:57:00;;;;;;;0.63;0.63;;;;;;;14.04;49.17;100775.03;5179697;28;19905;-81
2022/05/31 00:59:43;;;;;;;0.65;0.65;;;;;;;14.03;49.11;100778.59;5226741;28;20097;-82
2022/05/31 01:02:17;;;;;;;0.82;0.82;;;;;;;14.03;49.22;100777.75;5183362;28;20026;-82
2022/05/31 01:04:57;;;;;;;0.45;0.45;;;;;;;14.02;49.16;100784.78;5197348;28;20052;-81
2022/05/31 01:07:28;;;;;;;0.40;0.40;;;;;;;14.00;49.14;100776.09;5198741;28;20026;-81
2022/05/31 01:09:58;;;;;;;0.77;0.77;;;;;;;13.98;49.27;100776.13;5199758;28;20109;-82
2022/05/31 01:12:29;;;;;;;0.90;0.90;;;;;;;13.95;49.31;100775.41;5196870;28;20025;-81
2022/05/31 01:15:00;;;;;;;1.10;0.98;;;;;;;13.93;49.34;100775.47;5174031;28;20038;-81
2022/05/31 01:17:30;;;;;;;0.63;0.63;;;;;;;13.93;49.26;100771.97;5163321;28;20025;-81
2022/05/31 01:20:11;;;;;;;0.40;0.40;;;;;;;13.93;49.15;100766.69;5154008;28;20043;-81
2022/05/31 01:22:43;;;;;;;4.63;1.30;;;;;;;13.92;49.16;100765.00;5164170;28;20128;-81
2022/05/31 01:25:41;;;;;;;1.50;1.40;;;;;;;13.90;49.38;100766.84;5166131;28;20053;-81
2022/05/31 01:28:39;;;;;;;0.50;0.50;;;;;;;13.91;49.47;100763.28;5213374;28;20284;-81
2022/05/31 01:31:26;;;;;;;0.55;0.55;;;;;;;13.88;49.41;100761.63;5212930;28;20119;-81
2022/05/31 01:34:06;;;;;;;1.13;0.70;;;;;;;13.88;49.69;100758.13;5174044;28;20193;-81
2022/05/31 01:36:45;;;;;;;12.70;1.00;;;;;;;13.84;49.58;100758.22;5183804;28;20700;-81
2022/05/31 01:39:21;;;;;;;0.35;0.35;;;;;;;13.84;49.40;100760.88;5188326;28;20060;-82
2022/05/31 01:42:06;;;;;;;0.80;0.65;;;;;;;13.85;49.60;100751.19;5166028;28;20088;-81
2022/05/31 01:44:41;;;;;;;0.45;0.45;;;;;;;13.85;49.42;100757.31;5184502;28;20035;-81
2022/05/31 01:47:12;;;;;;;4.10;1.58;;;;;;;13.84;49.73;100755.59;5156441;28;20056;-81
2022/05/31 01:49:48;;;;;;;0.75;0.75;;;;;;;13.81;49.36;100757.50;5153220;28;20303;-81
2022/05/31 01:52:20;;;;;;;1.23;1.15;;;;;;;13.81;49.56;100758.38;5187948;28;20181;-82
2022/05/31 01:54:53;;;;;;;1.02;0.93;;;;;;;13.79;49.68;100754.09;5168457;28;20036;-82
2022/05/31 01:57:30;;;;;;;0.63;0.63;;;;;;;13.77;49.41;100750.66;5200137;28;20037;-82
2022/05/31 02:00:16;;;;;;;0.40;0.40;;;;;;;13.75;49.34;100748.06;5191241;28;20065;-82
2022/05/31 02:02:51;;;;;;;4.28;0.65;;;;;;;13.73;49.44;100752.53;5180925;28;20022;-81
2022/05/31 02:05:22;;;;;;;1.38;1.27;;;;;;;13.69;50.17;100743.91;5179588;28;20052;-82
2022/05/31 02:08:00;;;;;;;0.98;0.70;;;;;;;13.67;49.62;100743.09;5173050;28;20041;-82
2022/05/31 02:10:32;;;;;;;3.78;1.58;;;;;;;13.68;49.52;100741.31;5220679;28;20048;-81
2022/05/31 02:13:02;;;;;;;0.30;0.30;;;;;;;13.67;49.69;100744.88;5174814;28;20476;-82
2022/05/31 02:15:33;;;;;;;0.30;0.30;;;;;;;13.66;49.66;100738.75;5168760;28;20357;-82
2022/05/31 02:18:07;;;;;;;0.55;0.55;;;;;;;13.67;49.58;100739.63;5153005;28;20030;-82
2022/05/31 02:20:41;;;;;;;0.40;0.40;;;;;;;13.65;49.59;100741.44;5171782;28;20046;-82
2022/05/31 02:23:11;;;;;;;0.52;0.45;;;;;;;13.61;49.61;100735.44;5175237;28;20031;-80
2022/05/31 02:25:41;;;;;;;0.25;0.25;;;;;;;13.63;49.23;100727.47;5185516;28;20038;-81
2022/05/31 02:28:12;;;;;;;0.93;0.88;;;;;;;13.64;49.74;100735.28;5168723;28;20032;-82
2022/05/31 02:30:42;;;;;;;0.52;0.52;;;;;;;13.60;49.74;100736.34;5155833;28;20048;-82
2022/05/31 02:33:13;;;;;;;4.10;0.93;;;;;;;13.44;50.66;100738.72;5153430;28;20053;-82
2022/05/31 02:35:43;;;;;;;0.30;0.30;;;;;;;13.51;50.00;100732.28;5172007;28;20384;-82
2022/05/31 02:38:14;;;;;;;0.77;0.77;;;;;;;13.46;50.12;100734.25;5184575;28;20224;-82
2022/05/31 02:40:44;;;;;;;0.52;0.52;;;;;;;13.47;50.08;100738.59;5169805;28;20117;-82
2022/05/31 02:43:15;;;;;;;1.00;0.85;;;;;;;13.46;49.99;100738.69;5151732;28;20037;-83
2022/05/31 02:45:45;;;;;;;4.97;1.30;;;;;;;13.50;49.75;100733.22;5200741;28;20250;-83
2022/05/31 02:48:16;;;;;;;0.40;0.40;;;;;;;13.44;49.68;100730.81;5187997;28;20524;-82
2022/05/31 02:50:50;;;;;;;1.00;1.00;;;;;;;13.34;50.88;100735.56;5187658;28;20093;-83
2022/05/31 02:53:20;;;;;;;0.32;0.32;;;;;;;13.44;50.21;100732.59;5169061;28;20605;-82
2022/05/31 02:55:51;;;;;;;0.50;0.50;;;;;;;13.32;50.41;100739.16;5164928;28;20110;-83
2022/05/31 02:58:21;;;;;;;2.85;1.00;;;;;;;13.32;50.71;100739.16;5168956;28;20025;-83
2022/05/31 03:00:52;;;;;;;0.75;0.63;;;;;;;13.34;50.31;100732.06;5156469;28;20045;-82
2022/05/31 03:03:23;;;;;;;0.50;0.50;;;;;;;13.29;50.48;100724.34;5152597;28;20099;-82
2022/05/31 03:05:54;;;;;;;0.55;0.55;;;;;;;13.29;50.22;100723.47;5166614;28;20073;-83
2022/05/31 03:08:24;;;;;;;0.50;0.50;;;;;;;13.30;50.36;100725.19;5185859;28;20042;-82
2022/05/31 03:10:55;;;;;;;0.43;0.43;;;;;;;13.29;50.14;100726.09;5172739;28;20291;-82
2022/05/31 03:13:27;;;;;;;0.30;0.30;;;;;;;13.26;50.45;100728.88;5190381;28;20045;-82
2022/05/31 03:16:02;;;;;;;0.98;0.95;;;;;;;13.27;50.20;100725.28;5154493;28;20036;-83
2022/05/31 03:18:41;;;;;;;0.30;0.30;;;;;;;13.26;50.44;100720.97;5174635;28;20076;-84
2022/05/31 03:21:21;;;;;;;0.35;0.35;;;;;;;13.25;50.11;100720.09;5160729;28;20033;-82
2022/05/31 03:24:00;;;;;;;0.20;0.20;;;;;;;13.27;50.11;100730.56;5175355;28;20033;-83
2022/05/31 03:26:32;;;;;;;0.35;0.35;;;;;;;13.28;50.24;100722.63;5172285;28;20053;-83
2022/05/31 03:29:07;;;;;;;0.20;0.20;;;;;;;13.24;50.58;100718.38;5184215;28;20040;-83
2022/05/31 03:31:41;;;;;;;0.30;0.30;;;;;;;13.25;50.06;100720.09;5178209;28;20124;-82
2022/05/31 03:34:11;;;;;;;0.47;0.47;;;;;;;13.28;50.24;100714.72;5153225;28;20029;-82
2022/05/31 03:36:45;;;;;;;0.45;0.45;;;;;;;13.27;50.38;100713.00;5183272;28;20043;-83
2022/05/31 03:39:15;;;;;;;0.30;0.30;;;;;;;13.29;50.37;100703.25;5171708;28;20045;-83
2022/05/31 03:41:46;;;;;;;0.50;0.50;;;;;;;13.28;50.32;100712.09;5168783;28;20144;-81
2022/05/31 03:44:17;;;;;;;0.40;0.40;;;;;;;13.25;50.85;100712.19;5189105;28;20040;-82
2022/05/31 03:46:49;;;;;;;0.73;0.73;;;;;;;13.23;50.81;100714.00;5199209;28;20132;-83
2022/05/31 03:49:20;;;;;;;0.50;0.50;;;;;;;13.21;50.55;100706.19;5202932;28;20038;-82
2022/05/31 03:51:50;;;;;;;0.73;0.73;;;;;;;13.25;50.62;100706.06;5168157;28;20630;-82
2022/05/31 03:54:21;;;;;;;0.43;0.43;;;;;;;13.25;50.47;100706.06;5169013;28;20045;-82
2022/05/31 03:56:51;;;;;;;0.47;0.47;;;;;;;13.26;50.43;100707.78;5169251;28;20063;-83
2022/05/31 03:59:22;;;;;;;0.75;0.68;;;;;;;13.23;50.88;100712.25;5168955;28;20213;-82
2022/05/31 04:01:52;;;;;;;0.68;0.68;;;;;;;13.20;51.26;100712.38;5168197;28;20428;-82
2022/05/31 04:04:25;;;;;;;0.57;0.57;;;;;;;13.24;50.75;100710.47;5172149;28;20140;-82
2022/05/31 04:06:58;;;;;;;0.60;0.60;;;;;;;13.26;50.73;100711.28;5151932;28;20029;-82
2022/05/31 04:09:29;;;;;;;0.40;0.40;;;;;;;13.19;50.97;100713.28;5187009;28;20456;-82
2022/05/31 04:12:03;;;;;;;0.30;0.30;;;;;;;13.20;51.26;100712.38;5170748;28;20209;-82
2022/05/31 04:14:34;;;;;;;0.75;0.63;;;;;;;13.18;51.54;100710.72;5164680;28;20478;-83
2022/05/31 04:17:04;;;;;;;0.50;0.50;;;;;;;13.21;51.35;100707.97;5183258;28;20036;-83
2022/05/31 04:19:35;;;;;;;0.80;0.80;;;;;;;13.25;50.94;100711.34;5191100;28;20037;-83
2022/05/31 04:22:05;;;;;;;0.35;0.35;;;;;;;13.23;50.97;100707.00;5166911;28;20083;-84
2022/05/31 04:24:36;;;;;;;2.67;2.13;;;;;;;13.21;51.30;100711.44;5161847;28;20032;-83
2022/05/31 04:27:06;;;;;;;0.68;0.68;;;;;;;13.21;51.15;100700.06;5180487;28;20337;-84
2022/05/31 04:29:37;;;;;;;0.30;0.30;;;;;;;13.27;51.28;100701.59;5185338;28;20034;-83
2022/05/31 04:32:08;;;;;;;0.30;0.30;;;;;;;13.21;51.17;100693.00;5148122;28;20030;-84
2022/05/31 04:34:44;;;;;;;3.30;0.85;;;;;;;13.17;51.53;100698.44;5155111;28;20029;-84
2022/05/31 04:37:15;;;;;;;0.38;0.38;;;;;;;13.20;51.47;100699.19;5199036;28;20040;-83
2022/05/31 04:39:48;;;;;;;0.30;0.30;;;;;;;13.23;51.27;100696.44;5174058;28;20093;-83
2022/05/31 04:42:22;;;;;;;0.75;0.65;;;;;;;13.21;51.33;100697.44;5168931;28;20029;-84
2022/05/31 04:44:53;;;;;;;;;;;;;;;13.19;51.29;100702.75;5185142;28;20044;-84
2022/05/31 04:47:23;;;;;;;0.57;0.57;;;;;;;13.24;51.50;100699.94;5165153;28;19921;-85
2022/05/31 04:49:54;;;;;;;0.40;0.40;;;;;;;13.21;51.39;100711.44;5170331;28;20049;-85
2022/05/31 04:52:24;;;;;;;1.08;1.08;;;;;;;13.20;51.27;100703.63;5146416;28;20515;-85
2022/05/31 04:54:54;;;;;;;0.40;0.40;;;;;;;13.18;51.62;100706.28;5163414;28;20898;-85
2022/05/31 04:57:25;;;;;;;0.65;0.65;;;;;;;13.23;51.44;100699.09;5181694;28;20045;-84
2022/05/31 04:59:56;;;;;;;0.60;0.60;;;;;;;13.23;51.08;100699.09;5165705;28;20041;-85
2022/05/31 05:02:26;;;;;;;0.30;0.30;;;;;;;13.26;51.03;100702.53;5138760;28;20269;-84
2022/05/31 05:04:57;;;;;;;0.90;0.90;;;;;;;13.18;51.31;100697.53;5184124;28;20053;-84
2022/05/31 05:07:29;;;;;;;0.50;0.50;;;;;;;13.18;51.20;100706.28;5167523;28;20033;-84
2022/05/31 05:10:06;;;;;;;1.90;0.45;;;;;;;13.16;51.21;100710.78;5179846;28;20033;-84
2022/05/31 05:12:37;;;;;;;0.30;0.30;;;;;;;13.14;51.44;100714.41;5190612;28;20530;-84
2022/05/31 05:15:08;;;;;;;0.30;0.30;;;;;;;13.16;51.33;100720.44;5184089;28;20422;-84
2022/05/31 05:17:38;;;;;;;0.40;0.40;;;;;;;13.15;51.26;100730.13;5169022;28;20025;-84
2022/05/31 05:20:10;;;;;;;0.30;0.30;;;;;;;13.19;51.16;100734.34;5192895;28;20056;-84
2022/05/31 05:22:44;;;;;;;0.55;0.55;;;;;;;13.23;51.20;100733.34;5190761;28;20036;-85
2022/05/31 05:25:14;;;;;;;0.40;0.40;;;;;;;13.20;51.91;100732.59;5207609;28;20042;-86
2022/05/31 05:27:45;;;;;;;0.40;0.40;;;;;;;13.20;51.54;100725.53;5183292;28;20093;-84
2022/05/31 05:33:05;;;;;;;0.60;0.60;;;;;;;13.25;51.50;100714.81;5204363;28;20042;-83
2022/05/31 05:35:36;;;;;;;0.30;0.30;;;;;;;13.21;51.53;100706.19;5169467;28;20046;-83
2022/05/31 05:38:09;;;;;;;0.50;0.50;;;;;;;13.29;51.61;100702.38;5185846;28;20037;-83
2022/05/31 05:40:40;;;;;;;0.40;0.40;;;;;;;13.26;51.76;100698.09;5212119;28;20049;-83
2022/05/31 05:43:11;;;;;;;0.75;0.75;;;;;;;13.27;52.31;100699.81;5190131;28;20091;-83
2022/05/31 05:45:41;;;;;;;0.20;0.20;;;;;;;13.29;51.81;100705.03;5154745;28;20042;-83
2022/05/31 05:48:12;;;;;;;0.57;0.57;;;;;;;13.28;51.89;100708.56;5178657;28;20027;-83
2022/05/31 05:50:45;;;;;;;1.00;0.60;;;;;;;13.22;52.96;100713.16;5188611;28;20034;-83
2022/05/31 05:53:16;;;;;;;0.35;0.35;;;;;;;13.18;54.38;100708.91;5172792;28;20026;-83
2022/05/31 05:55:49;;;;;;;2.15;0.40;;;;;;;13.19;53.36;100702.75;5157204;28;20037;-82
2022/05/31 05:58:20;;;;;;;;;;;;;;;13.19;53.46;100712.44;5162610;28;20060;-82
2022/05/31 06:00:55;;;;;;;0.40;0.40;;;;;;;13.22;53.44;100707.91;5167863;28;19972;-83
2022/05/31 06:03:40;;;;;;;0.50;0.50;;;;;;;13.21;54.67;100756.25;5153202;28;20040;-82
2022/05/31 06:06:15;;;;;;;0.60;0.60;;;;;;;12.93;58.69;100758.19;5168390;28;20473;-82
2022/05/31 06:08:58;;;;;;;0.73;0.73;;;;;;;12.97;55.58;100749.25;5156178;28;20029;-82
2022/05/31 06:11:50;;;;;;;0.30;0.30;;;;;;;12.81;60.46;100757.72;5170989;28;20432;-82
2022/05/31 06:14:31;;;;;;;0.40;0.40;;;;;;;12.98;55.98;100758.88;5187114;28;20037;-82
2022/05/31 06:17:09;;;;;;;0.45;0.45;;;;;;;12.97;57.22;100765.06;5184361;28;20042;-82
2022/05/31 06:19:40;;;;;;;1.00;0.93;;;;;;;13.03;59.27;100762.19;5165663;28;20033;-83
2022/05/31 06:22:13;;;;;;;0.30;0.30;;;;;;;13.07;56.23;100755.91;5170168;28;20083;-82
2022/05/31 06:24:45;;;;;;;1.67;1.55;;;;;;;13.09;55.52;100758.47;5165537;28;20116;-82
2022/05/31 06:27:16;;;;;;;0.22;0.22;;;;;;;13.11;56.49;100756.66;5191908;28;20052;-81
2022/05/31 06:29:47;;;;;;;0.40;0.40;;;;;;;13.13;55.56;100747.75;5154986;28;20036;-82
2022/05/31 06:32:20;;;;;;;0.40;0.40;;;;;;;13.15;55.42;100738.03;5182547;28;20037;-81
2022/05/31 06:34:51;;;;;;;0.95;0.95;;;;;;;13.12;55.52;100740.78;5165913;28;20030;-81
2022/05/31 06:37:22;;;;;;;0.20;0.20;;;;;;;13.14;54.92;100744.22;5168827;28;20552;-82
2022/05/31 06:39:52;;;;;;;0.17;0.17;;;;;;;13.14;55.28;100733.69;5183617;28;20417;-82
2022/05/31 06:42:23;;;;;;;0.40;0.40;;;;;;;13.20;55.11;100741.34;5184382;28;20035;-82
2022/05/31 06:44:54;;;;;;;0.38;0.38;;;;;;;13.27;55.61;100741.97;5150865;28;20041;-81
2022/05/31 06:47:25;;;;;;;0.30;0.30;;;;;;;13.27;55.95;100735.84;5170930;28;20045;-81
2022/05/31 06:49:56;;;;;;;0.60;0.60;;;;;;;13.35;55.47;100737.28;5174397;28;20570;-82
2022/05/31 06:58:05;;;;;;;1.40;0.93;;;;;;;13.56;56.12;100733.91;5200334;28;20033;-82
2022/05/31 07:00:36;;;;;;;0.60;0.60;;;;;;;13.57;56.51;100732.97;5181494;28;20051;-82
2022/05/31 07:03:06;;;;;;;1.20;1.10;;;;;;;13.66;56.30;100722.06;5167828;28;20029;-82
2022/05/31 07:05:38;;;;;;;0.40;0.40;;;;;;;13.73;55.98;100717.38;5150316;28;20041;-82
2022/05/31 07:08:09;;;;;;;2.40;1.05;;;;;;;13.75;55.91;100713.78;5200868;28;20064;-82
2022/05/31 07:10:40;;;;;;;0.40;0.40;;;;;;;13.87;55.83;100715.06;5170729;28;20360;-82
2022/05/31 07:13:10;;;;;;;1.05;0.98;;;;;;;13.90;56.28;100714.94;5205729;28;20029;-82
2022/05/31 07:15:40;;;;;;;0.68;0.68;;;;;;;14.00;55.94;100707.50;5148582;28;20038;-82
2022/05/31 07:18:11;;;;;;;0.65;0.65;;;;;;;14.12;56.34;100712.25;5170469;28;20684;-82
2022/05/31 07:20:44;;;;;;;1.45;0.98;;;;;;;14.11;55.79;100707.91;5168288;28;20530;-83
2022/05/31 07:23:14;;;;;;;0.77;0.77;;;;;;;14.12;56.05;100704.34;5167601;28;20253;-82
2022/05/31 07:25:45;;;;;;;0.60;0.60;;;;;;;14.20;56.35;100705.78;5167802;28;20033;-82
2022/05/31 07:28:15;;;;;;;0.50;0.50;;;;;;;14.29;55.83;100705.41;5148969;28;20030;-82
2022/05/31 07:30:46;;;;;;;3.85;1.05;;;;;;;14.31;57.29;100704.41;5158053;28;20033;-82
2022/05/31 07:33:16;;;;;;;0.85;0.85;;;;;;;14.37;56.57;100703.28;5166812;28;20029;-83
2022/05/31 07:35:49;;;;;;;0.77;0.77;;;;;;;14.42;55.99;100701.31;5164428;28;20059;-83
2022/05/31 07:38:20;;;;;;;0.40;0.40;;;;;;;14.42;57.34;100711.03;5179438;28;20597;-83
2022/05/31 07:40:51;;;;;;;0.40;0.40;;;;;;;14.47;56.00;100709.91;5150092;28;20497;-83
2022/05/31 07:43:21;;;;;;;0.30;0.30;;;;;;;14.51;55.86;100715.03;5169097;28;20022;-82
2022/05/31 07:46:07;;;;;;;2.72;1.00;;;;;;;14.59;55.65;100708.50;5154761;28;20317;-83
2022/05/31 07:48:38;;;;;;;0.32;0.32;;;;;;;14.62;55.43;100713.66;5183396;28;20029;-82
2022/05/31 07:51:09;;;;;;;0.20;0.20;;;;;;;14.67;55.65;100713.47;5161511;28;20455;-83
2022/05/31 07:53:39;;;;;;;0.40;0.40;;;;;;;14.68;55.52;100712.53;5179847;28;20034;-83
2022/05/31 07:56:10;;;;;;;0.32;0.32;;;;;;;14.76;55.44;100709.56;5185923;28;20073;-82
2022/05/31 07:58:42;;;;;;;0.40;0.40;;;;;;;14.79;55.32;100699.72;5206364;28;20029;-83
2022/05/31 08:01:16;;;;;;;0.65;0.65;;;;;;;14.83;55.36;100703.09;5166483;28;20042;-82
2022/05/31 08:03:46;;;;;;;0.85;0.82;;;;;;;14.80;55.82;100703.22;5183288;28;20036;-83
2022/05/31 08:06:19;;;;;;;0.50;0.50;;;;;;;14.86;55.54;100704.72;5146913;28;20033;-83
2022/05/31 08:08:50;;;;;;;;;;;;;;;14.98;55.24;100713.88;5164674;28;20498;-83
2022/05/31 08:11:25;;;;;;;0.35;0.35;;;;;;;14.99;54.91;100705.91;5181073;28;19924;-83
2022/05/31 08:13:56;;;;;;;1.02;0.73;;;;;;;14.97;55.25;100707.75;5167132;28;20111;-82
2022/05/31 08:16:28;;;;;;;0.40;0.40;;;;;;;14.94;55.17;100702.59;5178811;28;20087;-82
2022/05/31 08:18:59;;;;;;;0.40;0.40;;;;;;;15.00;54.94;100704.94;5173065;28;20044;-82
2022/05/31 08:21:31;;;;;;;0.43;0.43;;;;;;;15.02;54.89;100705.72;5187371;28;20277;-83
2022/05/31 08:24:04;;;;;;;0.20;0.20;;;;;;;15.06;54.68;100706.44;5171388;28;20025;-82
2022/05/31 08:26:35;;;;;;;0.68;0.68;;;;;;;15.10;54.67;100708.88;5162357;28;20064;-82
2022/05/31 08:29:05;;;;;;;0.50;0.50;;;;;;;15.17;54.56;100704.19;5186000;28;20057;-82
2022/05/31 08:31:40;;;;;;;2.10;0.63;;;;;;;15.19;54.29;100696.16;5165469;28;20045;-83
2022/05/31 08:34:13;;;;;;;0.57;0.57;;;;;;;15.16;54.81;100701.63;5185645;28;20029;-83
2022/05/31 08:36:44;;;;;;;0.30;0.30;;;;;;;15.21;54.59;100699.59;5166996;28;20516;-83
2022/05/31 08:39:14;;;;;;;0.32;0.32;;;;;;;15.20;54.82;100701.41;5166622;28;20045;-81
2022/05/31 08:41:51;;;;;;;0.30;0.30;;;;;;;15.27;54.62;100704.59;5147296;28;20085;-81
2022/05/31 08:44:27;;;;;;;0.30;0.30;;;;;;;15.30;54.51;100698.28;5172049;28;20551;-81
2022/05/31 08:47:00;;;;;;;0.50;0.50;;;;;;;15.32;54.87;100702.59;5166338;28;20053;-82
2022/05/31 08:53:16;;;;;;;0.20;0.20;;;;;;;15.40;54.88;100704.88;5194904;28;20391;-82
2022/05/31 08:58:55;;;;;;;0.63;0.63;;;;;;;15.51;54.59;100693.78;5187959;28;20407;-81
2022/05/31 09:01:52;;;;;;;0.30;0.30;;;;;;;15.56;54.60;100694.44;5182643;28;20045;-81
2022/05/31 09:04:36;;;;;;;0.30;0.30;;;;;;;15.53;54.88;100692.78;5165584;28;20123;-81
2022/05/31 09:07:18;;;;;;;0.30;0.30;;;;;;;15.60;54.68;100689.84;5194031;28;20029;-81
2022/05/31 09:10:07;;;;;;;0.50;0.50;;;;;;;15.66;54.55;100690.38;5186621;28;20037;-83
2022/05/31 09:12:51;;;;;;;2.70;1.38;;;;;;;15.67;54.68;100696.53;5190745;28;20025;-83
2022/05/31 09:15:32;;;;;;;0.47;0.47;;;;;;;15.70;54.61;100691.13;5197712;28;20441;-83
2022/05/31 09:18:08;;;;;;;0.60;0.60;;;;;;;15.73;54.70;100691.81;5185511;28;20048;-83
2022/05/31 09:20:46;;;;;;;0.30;0.30;;;;;;;15.70;55.25;100688.47;5171689;28;20040;-83
2022/05/31 09:23:24;;;;;;;0.68;0.68;;;;;;;15.68;55.81;100691.16;5147794;28;20478;-83
2022/05/31 09:26:28;;;;;;;0.65;0.65;;;;;;;15.74;54.91;100693.50;5187836;28;20037;-83
2022/05/31 09:29:23;;;;;;;1.10;1.02;;;;;;;15.69;55.40;100694.69;5185635;28;20025;-83
2022/05/31 09:32:06;;;;;;;1.15;0.68;;;;;;;15.68;55.27;100693.81;5174700;28;20091;-83
2022/05/31 09:35:01;;;;;;;0.55;0.55;;;;;;;15.70;55.32;100704.34;5171288;28;20494;-83
2022/05/31 09:38:05;;;;;;;0.30;0.30;;;;;;;15.80;55.12;100702.09;5162031;28;20025;-83
2022/05/31 09:40:38;;;;;;;0.40;0.40;;;;;;;15.73;55.87;100705.03;5184104;28;20045;-83
2022/05/31 09:43:30;;;;;;;0.30;0.30;;;;;;;15.77;55.47;100703.09;5186323;28;20290;-83
2022/05/31 09:46:25;;;;;;;0.93;0.90;;;;;;;15.73;56.49;100702.41;5183755;28;20426;-83
2022/05/31 09:48:56;;;;;;;0.52;0.52;;;;;;;15.79;55.77;100695.09;5159013;28;20029;-83
2022/05/31 09:51:42;;;;;;;0.65;0.65;;;;;;;15.71;55.97;100696.31;5181322;28;20045;-83
2022/05/31 09:57:13;;;;;;;0.35;0.35;;;;;;;15.91;55.19;100689.19;5183354;28;20030;-83
2022/05/31 09:59:50;;;;;;;0.80;0.80;;;;;;;15.88;55.02;100689.38;5172608;28;20120;-83
2022/05/31 10:02:32;;;;;;;0.30;0.30;;;;;;;15.89;54.66;100685.81;5180446;28;20049;-83
2022/05/31 10:05:09;;;;;;;1.70;0.82;;;;;;;15.86;55.00;100673.59;5204010;28;20038;-83
2022/05/31 10:07:42;;;;;;;0.30;0.30;;;;;;;16.01;54.82;100677.22;5184514;28;20092;-83
2022/05/31 10:10:15;;;;;;;;;;;;;;;16.03;54.80;100679.81;5179739;28;20064;-83
2022/05/31 10:12:52;;;;;;;0.50;0.50;;;;;;;16.09;54.65;100670.69;5210582;28;19917;-83
2022/05/31 10:15:34;;;;;;;0.73;0.73;;;;;;;16.00;54.52;100675.50;5193414;28;20041;-84
2022/05/31 10:18:09;;;;;;;0.73;0.52;;;;;;;16.17;54.98;100671.16;5183324;28;20025;-83
2022/05/31 10:20:54;;;;;;;0.40;0.40;;;;;;;16.21;55.04;100670.06;5171667;28;20098;-83
2022/05/31 10:23:37;;;;;;;1.10;1.02;;;;;;;16.32;54.89;100666.84;5191584;28;20040;-84
2022/05/31 10:26:11;;;;;;;0.75;0.75;;;;;;;16.32;54.64;100667.69;5177508;28;20041;-83
2022/05/31 10:28:56;;;;;;;0.63;0.60;;;;;;;16.39;54.91;100659.47;5159335;28;20037;-82
2022/05/31 10:31:36;;;;;;;28.63;1.52;;;;;;;16.46;54.58;100664.34;5175123;28;20033;-83
2022/05/31 10:34:40;;;;;;;0.47;0.47;;;;;;;16.43;54.54;100661.00;5167084;28;20153;-83
2022/05/31 10:37:32;;;;;;;0.75;0.45;;;;;;;16.46;54.48;100659.03;5159507;28;20405;-83
2022/05/31 10:40:10;;;;;;;0.45;0.45;;;;;;;16.42;54.50;100652.22;5162812;28;20057;-83
2022/05/31 10:42:44;;;;;;;0.40;0.40;;;;;;;16.58;54.55;100652.22;5153856;28;20055;-83
2022/05/31 10:45:31;;;;;;;0.55;0.55;;;;;;;16.62;54.22;100647.63;5185665;28;20041;-82
2022/05/31 10:48:02;;;;;;;0.40;0.40;;;;;;;16.53;55.42;100649.00;5188145;28;20112;-83
2022/05/31 10:50:56;;;;;;;4.90;1.40;;;;;;;16.64;54.42;100653.72;5169202;28;20103;-83
2022/05/31 10:53:35;;;;;;;;;;;;;;;16.66;54.75;100655.34;5149185;28;20175;-83
2022/05/31 10:56:16;;;;;;;0.85;0.65;;;;;;;16.70;53.67;100649.88;5155846;28;19913;-84
2022/05/31 10:59:03;;;;;;;0.32;0.32;;;;;;;16.74;54.20;100644.34;5180259;28;20042;-84
2022/05/31 11:01:40;;;;;;;0.28;0.28;;;;;;;16.81;54.09;100635.09;5169282;28;20045;-83
2022/05/31 11:04:30;;;;;;;0.22;0.22;;;;;;;16.86;54.23;100637.50;5162530;28;20337;-84
2022/05/31 11:07:06;;;;;;;3.43;1.93;;;;;;;16.87;52.59;100635.69;5185545;28;20148;-83
2022/05/31 11:13:17;;;;;;;1.25;1.25;;;;;;;17.02;52.39;100623.44;5198928;28;20131;-83
2022/05/31 11:16:14;;;;;;;0.32;0.32;;;;;;;17.10;51.64;100639.78;5184143;28;20095;-84
2022/05/31 11:18:56;;;;;;;0.20;0.20;;;;;;;17.09;52.46;100638.06;5167022;28;20032;-84
2022/05/31 11:21:46;;;;;;;0.30;0.30;;;;;;;17.17;52.54;100642.94;5176273;28;20107;-83
2022/05/31 11:24:36;;;;;;;0.85;0.82;;;;;;;17.25;52.53;100635.41;5172482;28;20278;-82
2022/05/31 11:27:41;;;;;;;0.50;0.50;;;;;;;17.44;51.75;100629.91;5184165;28;20046;-82
2022/05/31 11:30:33;;;;;;;0.50;0.50;;;;;;;17.50;51.28;100634.84;5168801;28;20045;-83
2022/05/31 11:33:09;;;;;;;0.40;0.40;;;;;;;17.58;51.22;100624.66;5179214;28;20091;-83
2022/05/31 11:35:47;;;;;;;0.63;0.63;;;;;;;17.67;51.49;100630.38;5203080;28;20045;-83
2022/05/31 11:38:25;;;;;;;1.65;0.70;;;;;;;17.74;48.66;100637.03;5168497;28;20314;-82
2022/05/31 11:41:18;;;;;;;0.50;0.50;;;;;;;17.86;49.42;100630.13;5180425;28;20068;-83
2022/05/31 11:44:13;;;;;;;0.30;0.30;;;;;;;17.96;45.78;100630.50;5147759;28;20034;-83
2022/05/31 11:47:01;;;;;;;0.40;0.40;;;;;;;18.15;47.72;100623.13;5201013;28;20166;-83
2022/05/31 11:50:09;;;;;;;0.30;0.30;;;;;;;18.24;47.95;100625.22;5187206;28;20512;-83
2022/05/31 11:53:06;;;;;;;0.32;0.32;;;;;;;18.42;45.71;100632.16;5165783;28;20040;-83
2022/05/31 11:55:40;;;;;;;0.30;0.30;;;;;;;18.58;47.38;100626.75;5154530;28;20116;-83
2022/05/31 11:58:24;;;;;;;0.43;0.40;;;;;;;18.78;48.10;100626.34;5188072;28;20087;-83
2022/05/31 12:01:22;;;;;;;0.73;0.38;;;;;;;18.76;47.79;100630.91;5167391;28;20109;-83
2022/05/31 12:04:08;;;;;;;0.20;0.20;;;;;;;18.87;47.98;100631.09;5147934;28;20029;-82
2022/05/31 12:06:53;;;;;;;0.38;0.38;;;;;;;18.93;43.36;100621.03;5162217;28;20093;-83
2022/05/31 12:09:52;;;;;;;5.07;1.13;;;;;;;19.01;46.41;100618.75;5164475;28;20034;-84
2022/05/31 12:12:31;;;;;;;0.20;0.20;;;;;;;19.07;44.12;100618.34;5156282;28;20033;-83
2022/05/31 12:15:10;;;;;;;0.57;0.57;;;;;;;19.06;41.19;100621.09;5165833;28;20026;-83
2022/05/31 12:17:54;;;;;;;0.30;0.30;;;;;;;18.94;40.06;100610.28;5200578;28;20064;-83
2022/05/31 12:20:43;;;;;;;0.20;0.20;;;;;;;19.13;44.20;100604.63;5169412;28;20041;-84
2022/05/31 12:23:32;;;;;;;0.40;0.40;;;;;;;19.22;43.74;100612.97;5159508;28;20033;-83
2022/05/31 12:26:05;;;;;;;0.20;0.20;;;;;;;19.08;41.84;100614.72;5169492;28;20120;-83
2022/05/31 12:28:49;;;;;;;1.38;1.15;;;;;;;19.11;42.58;100619.00;5201149;28;20287;-82